VDPP

Phnom Penh International Airport

Airport
ICAO code
VDPP
IATA Code
PNH
Summary
ICAO Region
APAC
ICAO Territory
Location

Phnom Penh, Phnom Penh

Serving
Phnom Penh
Elevation
40 ft
Coordinates
11° 32' 46" N , 104° 50' 52" E
KCC
Aw
Metar
Observation
VDPP 081400Z 23005KT 9000 SCT015 BKN040 28/23 Q1007
Station
Phnom-Penh / Pochentong
Date/Time
2022-08-08 14:00:00
Wind direction
230°
Wind speed
05 kts
Lowest cloud amount
scattered clouds
Temperature
28°C
Dew point
23°C
Humidity
74%
QNH
1007 hPa
Weather condition
n/a

International airport serving Phnom Penh, Cambodia. It is located 7 km west of Phnom Penh, the nation's capital.

Climatology

Tropical Savanna climate (Köppen climate classification Aw)

Airport map

Aerial View

SKYbrary Partners:

Safety knowledge contributed by: